sensor_id;sensor_type;location;lat;lon;timestamp;temperature;humidity
4922;DHT22;16625;53.624;10.106;2022-09-12T00:01:08;10.80;99.90
4922;DHT22;16625;53.624;10.106;2022-09-12T00:03:36;10.70;99.90
4922;DHT22;16625;53.624;10.106;2022-09-12T00:06:08;10.70;99.90
4922;DHT22;16625;53.624;10.106;2022-09-12T00:08:35;10.70;99.90
4922;DHT22;16625;53.624;10.106;2022-09-12T00:11:05;10.70;99.90
4922;DHT22;16625;53.624;10.106;2022-09-12T00:13:32;10.60;99.90
4922;DHT22;16625;53.624;10.106;2022-09-12T00:15:59;10.60;99.90
4922;DHT22;16625;53.624;10.106;2022-09-12T00:18:27;10.60;99.90
4922;DHT22;16625;53.624;10.106;2022-09-12T00:20:54;10.80;99.90
4922;DHT22;16625;53.624;10.106;2022-09-12T00:23:21;10.50;99.90
4922;DHT22;16625;53.624;10.106;2022-09-12T00:25:48;10.50;99.90
4922;DHT22;16625;53.624;10.106;2022-09-12T00:28:16;10.50;99.90
4922;DHT22;16625;53.624;10.106;2022-09-12T00:30:45;10.50;99.90
4922;DHT22;16625;53.624;10.106;2022-09-12T00:33:13;10.50;99.90
4922;DHT22;16625;53.624;10.106;2022-09-12T00:35:43;10.90;99.90
4922;DHT22;16625;53.624;10.106;2022-09-12T00:38:11;10.40;99.90
4922;DHT22;16625;53.624;10.106;2022-09-12T00:40:38;10.40;99.90
4922;DHT22;16625;53.624;10.106;2022-09-12T00:43:07;10.40;99.90
4922;DHT22;16625;53.624;10.106;2022-09-12T00:45:35;10.40;99.90
4922;DHT22;16625;53.624;10.106;2022-09-12T00:48:03;10.30;99.90
4922;DHT22;16625;53.624;10.106;2022-09-12T00:50:31;10.30;99.90
4922;DHT22;16625;53.624;10.106;2022-09-12T00:53:03;10.30;99.90
4922;DHT22;16625;53.624;10.106;2022-09-12T00:55:34;10.30;99.90
4922;DHT22;16625;53.624;10.106;2022-09-12T00:58:05;10.30;99.90
4922;DHT22;16625;53.624;10.106;2022-09-12T01:00:33;10.20;99.90
4922;DHT22;16625;53.624;10.106;2022-09-12T01:03:02;10.20;99.90
4922;DHT22;16625;53.624;10.106;2022-09-12T01:05:33;10.20;99.90
4922;DHT22;16625;53.624;10.106;2022-09-12T01:08:03;10.10;99.90
4922;DHT22;16625;53.624;10.106;2022-09-12T01:10:30;10.10;99.90
4922;DHT22;16625;53.624;10.106;2022-09-12T01:12:58;10.10;99.90
4922;DHT22;16625;53.624;10.106;2022-09-12T01:15:25;10.10;99.90
4922;DHT22;16625;53.624;10.106;2022-09-12T01:18:04;10.10;99.90
4922;DHT22;16625;53.624;10.106;2022-09-12T01:20:45;10.00;99.90
4922;DHT22;16625;53.624;10.106;2022-09-12T01:29:40;9.90;99.90
4922;DHT22;16625;53.624;10.106;2022-09-12T01:32:15;9.90;99.90
4922;DHT22;16625;53.624;10.106;2022-09-12T01:34:49;9.90;99.90
4922;DHT22;16625;53.624;10.106;2022-09-12T01:37:25;9.90;99.90
4922;DHT22;16625;53.624;10.106;2022-09-12T01:40:02;10.00;99.90
4922;DHT22;16625;53.624;10.106;2022-09-12T01:42:33;9.80;99.90
4922;DHT22;16625;53.624;10.106;2022-09-12T01:45:07;9.80;99.90
4922;DHT22;16625;53.624;10.106;2022-09-12T01:47:39;9.80;99.90
4922;DHT22;16625;53.624;10.106;2022-09-12T01:50:09;9.80;99.90
4922;DHT22;16625;53.624;10.106;2022-09-12T01:52:41;9.80;99.90
4922;DHT22;16625;53.624;10.106;2022-09-12T01:55:14;9.70;99.90
4922;DHT22;16625;53.624;10.106;2022-09-12T01:57:44;9.70;99.90
4922;DHT22;16625;53.624;10.106;2022-09-12T02:00:13;9.70;99.90
4922;DHT22;16625;53.624;10.106;2022-09-12T02:02:45;9.70;99.90
4922;DHT22;16625;53.624;10.106;2022-09-12T02:05:21;9.60;99.90
4922;DHT22;16625;53.624;10.106;2022-09-12T02:07:51;9.60;99.90
4922;DHT22;16625;53.624;10.106;2022-09-12T02:10:22;9.60;99.90
4922;DHT22;16625;53.624;10.106;2022-09-12T02:12:53;9.50;99.90
4922;DHT22;16625;53.624;10.106;2022-09-12T02:15:25;9.50;99.90
4922;DHT22;16625;53.624;10.106;2022-09-12T02:17:55;9.50;99.90
4922;DHT22;16625;53.624;10.106;2022-09-12T02:20:26;9.50;99.90
4922;DHT22;16625;53.624;10.106;2022-09-12T02:22:56;9.50;99.90
4922;DHT22;16625;53.624;10.106;2022-09-12T02:25:24;9.50;99.90
4922;DHT22;16625;53.624;10.106;2022-09-12T02:27:54;9.50;99.90
4922;DHT22;16625;53.624;10.106;2022-09-12T02:30:23;9.40;99.90
4922;DHT22;16625;53.624;10.106;2022-09-12T02:32:59;9.40;99.90
4922;DHT22;16625;53.624;10.106;2022-09-12T02:35:32;9.40;99.90
4922;DHT22;16625;53.624;10.106;2022-09-12T02:38:04;9.40;99.90
4922;DHT22;16625;53.624;10.106;2022-09-12T02:40:34;9.40;99.90
4922;DHT22;16625;53.624;10.106;2022-09-12T02:43:02;9.40;99.90
4922;DHT22;16625;53.624;10.106;2022-09-12T02:45:31;9.40;99.90
4922;DHT22;16625;53.624;10.106;2022-09-12T02:48:03;9.30;99.90
4922;DHT22;16625;53.624;10.106;2022-09-12T02:50:31;9.30;99.90
4922;DHT22;16625;53.624;10.106;2022-09-12T02:52:59;9.30;99.90
4922;DHT22;16625;53.624;10.106;2022-09-12T02:55:30;9.20;99.90
4922;DHT22;16625;53.624;10.106;2022-09-12T02:57:58;9.20;99.90
4922;DHT22;16625;53.624;10.106;2022-09-12T03:00:26;9.20;99.90
4922;DHT22;16625;53.624;10.106;2022-09-12T03:03:11;10.50;99.90
4922;DHT22;16625;53.624;10.106;2022-09-12T03:05:45;9.20;99.90
4922;DHT22;16625;53.624;10.106;2022-09-12T03:08:39;9.20;99.90
4922;DHT22;16625;53.624;10.106;2022-09-12T03:11:21;9.20;99.90
4922;DHT22;16625;53.624;10.106;2022-09-12T03:13:59;9.20;99.90
4922;DHT22;16625;53.624;10.106;2022-09-12T03:16:34;9.20;99.90
4922;DHT22;16625;53.624;10.106;2022-09-12T03:19:12;9.20;99.90
4922;DHT22;16625;53.624;10.106;2022-09-12T03:21:48;9.20;99.90
4922;DHT22;16625;53.624;10.106;2022-09-12T03:24:20;9.10;99.90
4922;DHT22;16625;53.624;10.106;2022-09-12T03:26:53;9.10;99.90
4922;DHT22;16625;53.624;10.106;2022-09-12T03:29:23;9.10;99.90
4922;DHT22;16625;53.624;10.106;2022-09-12T03:31:52;9.10;99.90
4922;DHT22;16625;53.624;10.106;2022-09-12T03:34:22;9.80;99.90
4922;DHT22;16625;53.624;10.106;2022-09-12T03:36:51;9.10;99.90
4922;DHT22;16625;53.624;10.106;2022-09-12T03:39:20;9.00;99.90
4922;DHT22;16625;53.624;10.106;2022-09-12T03:41:48;9.00;99.90
4922;DHT22;16625;53.624;10.106;2022-09-12T03:44:15;9.00;99.90
4922;DHT22;16625;53.624;10.106;2022-09-12T03:46:42;9.00;99.90
4922;DHT22;16625;53.624;10.106;2022-09-12T03:49:09;9.00;99.90
4922;DHT22;16625;53.624;10.106;2022-09-12T03:51:38;9.00;99.90
4922;DHT22;16625;53.624;10.106;2022-09-12T03:54:05;9.00;99.90
4922;DHT22;16625;53.624;10.106;2022-09-12T03:56:32;9.00;99.90
4922;DHT22;16625;53.624;10.106;2022-09-12T03:59:00;8.90;99.90
4922;DHT22;16625;53.624;10.106;2022-09-12T04:01:27;9.00;99.90
4922;DHT22;16625;53.624;10.106;2022-09-12T04:03:54;8.90;99.90
4922;DHT22;16625;53.624;10.106;2022-09-12T04:06:21;8.90;99.90
4922;DHT22;16625;53.624;10.106;2022-09-12T04:08:53;8.90;99.90
4922;DHT22;16625;53.624;10.106;2022-09-12T04:11:20;8.90;99.90
4922;DHT22;16625;53.624;10.106;2022-09-12T04:13:47;8.80;99.90
4922;DHT22;16625;53.624;10.106;2022-09-12T04:16:14;8.80;99.90
4922;DHT22;16625;53.624;10.106;2022-09-12T04:18:42;9.10;99.90
4922;DHT22;16625;53.624;10.106;2022-09-12T04:21:11;9.40;99.90
4922;DHT22;16625;53.624;10.106;2022-09-12T04:23:38;8.80;99.90
4922;DHT22;16625;53.624;10.106;2022-09-12T04:26:07;8.80;99.90
4922;DHT22;16625;53.624;10.106;2022-09-12T04:28:34;8.80;99.90
4922;DHT22;16625;53.624;10.106;2022-09-12T04:31:03;8.80;99.90
4922;DHT22;16625;53.624;10.106;2022-09-12T04:33:31;8.80;99.90
4922;DHT22;16625;53.624;10.106;2022-09-12T04:36:03;8.80;99.90
4922;DHT22;16625;53.624;10.106;2022-09-12T04:38:30;8.80;99.90
4922;DHT22;16625;53.624;10.106;2022-09-12T04:40:56;8.80;99.90
4922;DHT22;16625;53.624;10.106;2022-09-12T04:43:25;8.80;99.90
4922;DHT22;16625;53.624;10.106;2022-09-12T04:45:51;8.80;99.90
4922;DHT22;16625;53.624;10.106;2022-09-12T04:48:18;8.80;99.90
4922;DHT22;16625;53.624;10.106;2022-09-12T04:50:45;8.80;99.90
4922;DHT22;16625;53.624;10.106;2022-09-12T04:53:12;8.80;99.90
4922;DHT22;16625;53.624;10.106;2022-09-12T04:55:39;9.70;99.90
4922;DHT22;16625;53.624;10.106;2022-09-12T04:58:05;8.70;99.90
4922;DHT22;16625;53.624;10.106;2022-09-12T05:00:33;8.70;99.90
4922;DHT22;16625;53.624;10.106;2022-09-12T05:03:00;8.70;99.90
4922;DHT22;16625;53.624;10.106;2022-09-12T05:05:27;8.80;99.90
4922;DHT22;16625;53.624;10.106;2022-09-12T05:07:54;8.80;99.90
4922;DHT22;16625;53.624;10.106;2022-09-12T05:10:20;8.90;99.90
4922;DHT22;16625;53.624;10.106;2022-09-12T05:12:48;8.80;99.90
4922;DHT22;16625;53.624;10.106;2022-09-12T05:15:15;8.80;99.90
4922;DHT22;16625;53.624;10.106;2022-09-12T05:17:44;8.90;99.90
4922;DHT22;16625;53.624;10.106;2022-09-12T05:20:11;8.90;99.90
4922;DHT22;16625;53.624;10.106;2022-09-12T05:22:38;9.00;99.90
4922;DHT22;16625;53.624;10.106;2022-09-12T05:25:06;9.00;99.90
4922;DHT22;16625;53.624;10.106;2022-09-12T05:27:33;9.10;99.90
4922;DHT22;16625;53.624;10.106;2022-09-12T05:29:59;9.20;99.90
4922;DHT22;16625;53.624;10.106;2022-09-12T05:32:30;9.30;99.90
4922;DHT22;16625;53.624;10.106;2022-09-12T05:34:58;9.30;99.90
4922;DHT22;16625;53.624;10.106;2022-09-12T05:37:25;9.40;99.90
4922;DHT22;16625;53.624;10.106;2022-09-12T05:39:52;9.40;99.90
4922;DHT22;16625;53.624;10.106;2022-09-12T05:42:19;9.50;99.90
4922;DHT22;16625;53.624;10.106;2022-09-12T05:44:45;9.50;99.90
4922;DHT22;16625;53.624;10.106;2022-09-12T05:47:12;9.60;99.90
4922;DHT22;16625;53.624;10.106;2022-09-12T05:49:41;10.00;99.90
4922;DHT22;16625;53.624;10.106;2022-09-12T05:52:11;9.80;99.90
4922;DHT22;16625;53.624;10.106;2022-09-12T05:54:37;9.80;99.90
4922;DHT22;16625;53.624;10.106;2022-09-12T05:57:05;9.90;99.90
4922;DHT22;16625;53.624;10.106;2022-09-12T05:59:34;10.00;99.90
4922;DHT22;16625;53.624;10.106;2022-09-12T06:02:02;10.10;99.90
4922;DHT22;16625;53.624;10.106;2022-09-12T06:04:29;10.20;99.90
4922;DHT22;16625;53.624;10.106;2022-09-12T06:06:56;10.30;99.90
4922;DHT22;16625;53.624;10.106;2022-09-12T06:09:24;10.40;99.90
4922;DHT22;16625;53.624;10.106;2022-09-12T06:11:51;10.50;99.90
4922;DHT22;16625;53.624;10.106;2022-09-12T06:14:17;10.60;99.90
4922;DHT22;16625;53.624;10.106;2022-09-12T06:16:45;10.80;99.90
4922;DHT22;16625;53.624;10.106;2022-09-12T06:19:14;11.30;99.90
4922;DHT22;16625;53.624;10.106;2022-09-12T06:21:42;10.90;99.90
4922;DHT22;16625;53.624;10.106;2022-09-12T06:24:09;11.00;99.90
4922;DHT22;16625;53.624;10.106;2022-09-12T06:26:37;11.20;99.90
4922;DHT22;16625;53.624;10.106;2022-09-12T06:29:04;11.30;99.90
4922;DHT22;16625;53.624;10.106;2022-09-12T06:31:33;11.40;99.90
4922;DHT22;16625;53.624;10.106;2022-09-12T06:34:02;11.50;99.90
4922;DHT22;16625;53.624;10.106;2022-09-12T06:36:30;11.70;99.90
4922;DHT22;16625;53.624;10.106;2022-09-12T06:38:59;11.80;99.90
4922;DHT22;16625;53.624;10.106;2022-09-12T06:41:26;12.00;99.90
4922;DHT22;16625;53.624;10.106;2022-09-12T06:43:56;12.10;99.90
4922;DHT22;16625;53.624;10.106;2022-09-12T06:46:23;12.10;99.90
4922;DHT22;16625;53.624;10.106;2022-09-12T06:48:50;12.30;99.90
4922;DHT22;16625;53.624;10.106;2022-09-12T06:51:18;12.50;99.90
4922;DHT22;16625;53.624;10.106;2022-09-12T06:53:46;12.60;99.90
4922;DHT22;16625;53.624;10.106;2022-09-12T06:56:15;12.80;99.90
4922;DHT22;16625;53.624;10.106;2022-09-12T06:58:43;12.90;99.90
4922;DHT22;16625;53.624;10.106;2022-09-12T07:01:14;13.00;99.90
4922;DHT22;16625;53.624;10.106;2022-09-12T07:03:41;13.10;99.90
4922;DHT22;16625;53.624;10.106;2022-09-12T07:06:10;13.20;99.90
4922;DHT22;16625;53.624;10.106;2022-09-12T07:08:38;13.40;99.90
4922;DHT22;16625;53.624;10.106;2022-09-12T07:11:10;13.50;99.90
4922;DHT22;16625;53.624;10.106;2022-09-12T07:13:37;13.60;99.90
4922;DHT22;16625;53.624;10.106;2022-09-12T07:16:05;13.90;99.90
4922;DHT22;16625;53.624;10.106;2022-09-12T07:18:34;13.90;99.90
4922;DHT22;16625;53.624;10.106;2022-09-12T07:21:04;14.40;99.90
4922;DHT22;16625;53.624;10.106;2022-09-12T07:23:31;14.10;99.90
4922;DHT22;16625;53.624;10.106;2022-09-12T07:25:59;14.70;99.90
4922;DHT22;16625;53.624;10.106;2022-09-12T07:28:28;14.40;99.90
4922;DHT22;16625;53.624;10.106;2022-09-12T07:30:56;14.50;99.90
4922;DHT22;16625;53.624;10.106;2022-09-12T07:33:26;14.60;99.90
4922;DHT22;16625;53.624;10.106;2022-09-12T07:35:54;14.70;99.90
4922;DHT22;16625;53.624;10.106;2022-09-12T07:38:25;14.80;99.90
4922;DHT22;16625;53.624;10.106;2022-09-12T07:40:52;15.00;99.90
4922;DHT22;16625;53.624;10.106;2022-09-12T07:43:19;15.10;99.90
4922;DHT22;16625;53.624;10.106;2022-09-12T07:45:46;15.20;99.90
4922;DHT22;16625;53.624;10.106;2022-09-12T07:48:12;15.40;99.90
4922;DHT22;16625;53.624;10.106;2022-09-12T07:50:40;15.50;99.90
4922;DHT22;16625;53.624;10.106;2022-09-12T07:53:08;15.60;99.90
4922;DHT22;16625;53.624;10.106;2022-09-12T07:55:35;15.80;99.90
4922;DHT22;16625;53.624;10.106;2022-09-12T07:58:02;16.00;99.90
4922;DHT22;16625;53.624;10.106;2022-09-12T08:00:29;16.00;99.90
4922;DHT22;16625;53.624;10.106;2022-09-12T08:03:00;16.00;99.90
4922;DHT22;16625;53.624;10.106;2022-09-12T08:05:28;16.20;99.90
4922;DHT22;16625;53.624;10.106;2022-09-12T08:07:55;16.40;99.90
4922;DHT22;16625;53.624;10.106;2022-09-12T08:10:23;16.50;99.90
4922;DHT22;16625;53.624;10.106;2022-09-12T08:12:50;16.60;99.90
4922;DHT22;16625;53.624;10.106;2022-09-12T08:15:17;16.70;99.90
4922;DHT22;16625;53.624;10.106;2022-09-12T08:17:44;17.00;99.90
4922;DHT22;16625;53.624;10.106;2022-09-12T08:20:11;17.20;99.90
4922;DHT22;16625;53.624;10.106;2022-09-12T08:22:38;17.30;99.90
4922;DHT22;16625;53.624;10.106;2022-09-12T08:25:06;17.50;99.90
4922;DHT22;16625;53.624;10.106;2022-09-12T08:27:34;17.60;99.90
4922;DHT22;16625;53.624;10.106;2022-09-12T08:30:02;17.70;99.90
4922;DHT22;16625;53.624;10.106;2022-09-12T08:32:29;17.80;99.90
4922;DHT22;16625;53.624;10.106;2022-09-12T08:34:56;17.90;99.90
4922;DHT22;16625;53.624;10.106;2022-09-12T08:37:23;18.10;99.90
4922;DHT22;16625;53.624;10.106;2022-09-12T08:39:50;18.20;99.90
4922;DHT22;16625;53.624;10.106;2022-09-12T08:42:22;18.20;99.90
4922;DHT22;16625;53.624;10.106;2022-09-12T08:45:07;18.30;99.90
4922;DHT22;16625;53.624;10.106;2022-09-12T08:47:38;18.50;99.90
4922;DHT22;16625;53.624;10.106;2022-09-12T08:50:14;18.60;99.90
4922;DHT22;16625;53.624;10.106;2022-09-12T08:52:48;18.70;99.90
4922;DHT22;16625;53.624;10.106;2022-09-12T08:55:26;18.90;99.90
4922;DHT22;16625;53.624;10.106;2022-09-12T08:57:55;19.10;99.90
4922;DHT22;16625;53.624;10.106;2022-09-12T09:00:37;19.10;1.00
4922;DHT22;16625;53.624;10.106;2022-09-12T09:06:07;19.00;99.90
4922;DHT22;16625;53.624;10.106;2022-09-12T09:08:46;19.00;99.90
4922;DHT22;16625;53.624;10.106;2022-09-12T09:11:32;19.10;99.90
4922;DHT22;16625;53.624;10.106;2022-09-12T09:14:12;19.20;1.00
4922;DHT22;16625;53.624;10.106;2022-09-12T09:17:08;19.30;1.00
4922;DHT22;16625;53.624;10.106;2022-09-12T09:19:41;19.40;99.90
4922;DHT22;16625;53.624;10.106;2022-09-12T09:22:13;19.50;22.90
4922;DHT22;16625;53.624;10.106;2022-09-12T09:24:44;19.60;1.00
4922;DHT22;16625;53.624;10.106;2022-09-12T09:27:21;20.30;97.20
4922;DHT22;16625;53.624;10.106;2022-09-12T09:29:55;19.80;1.00
4922;DHT22;16625;53.624;10.106;2022-09-12T09:32:26;19.80;99.90
4922;DHT22;16625;53.624;10.106;2022-09-12T09:34:54;19.80;1.00
4922;DHT22;16625;53.624;10.106;2022-09-12T09:37:31;19.90;99.90
4922;DHT22;16625;53.624;10.106;2022-09-12T09:40:12;20.10;99.90
4922;DHT22;16625;53.624;10.106;2022-09-12T09:42:45;20.20;1.00
4922;DHT22;16625;53.624;10.106;2022-09-12T09:45:19;20.40;1.00
4922;DHT22;16625;53.624;10.106;2022-09-12T09:47:50;20.50;1.00
4922;DHT22;16625;53.624;10.106;2022-09-12T09:50:20;20.60;99.90
4922;DHT22;16625;53.624;10.106;2022-09-12T09:52:49;20.70;98.30
4922;DHT22;16625;53.624;10.106;2022-09-12T09:55:21;20.80;99.90
4922;DHT22;16625;53.624;10.106;2022-09-12T09:57:48;21.00;99.90
4922;DHT22;16625;53.624;10.106;2022-09-12T10:00:25;20.80;99.90
4922;DHT22;16625;53.624;10.106;2022-09-12T10:05:47;21.00;99.90
4922;DHT22;16625;53.624;10.106;2022-09-12T10:08:27;21.10;1.00
4922;DHT22;16625;53.624;10.106;2022-09-12T10:10:59;21.10;1.00
4922;DHT22;16625;53.624;10.106;2022-09-12T10:13:35;21.20;1.00
4922;DHT22;16625;53.624;10.106;2022-09-12T10:16:05;21.50;1.00
4922;DHT22;16625;53.624;10.106;2022-09-12T10:18:39;21.70;1.00
4922;DHT22;16625;53.624;10.106;2022-09-12T10:21:15;21.80;1.00
4922;DHT22;16625;53.624;10.106;2022-09-12T10:23:44;21.70;99.90
4922;DHT22;16625;53.624;10.106;2022-09-12T10:26:14;21.90;99.90
4922;DHT22;16625;53.624;10.106;2022-09-12T10:28:45;22.00;99.90
4922;DHT22;16625;53.624;10.106;2022-09-12T10:31:15;22.00;99.90
4922;DHT22;16625;53.624;10.106;2022-09-12T10:33:46;22.10;99.90
4922;DHT22;16625;53.624;10.106;2022-09-12T10:36:17;22.00;99.90
4922;DHT22;16625;53.624;10.106;2022-09-12T10:38:48;22.10;99.90
4922;DHT22;16625;53.624;10.106;2022-09-12T10:41:17;22.20;99.90
4922;DHT22;16625;53.624;10.106;2022-09-12T10:43:44;22.20;99.90
4922;DHT22;16625;53.624;10.106;2022-09-12T10:46:25;22.40;99.90
4922;DHT22;16625;53.624;10.106;2022-09-12T10:49:16;22.00;99.90
4922;DHT22;16625;53.624;10.106;2022-09-12T10:51:46;22.50;99.90
4922;DHT22;16625;53.624;10.106;2022-09-12T10:54:15;22.10;99.90
4922;DHT22;16625;53.624;10.106;2022-09-12T10:56:53;22.20;99.90
4922;DHT22;16625;53.624;10.106;2022-09-12T10:59:30;23.00;99.90
4922;DHT22;16625;53.624;10.106;2022-09-12T11:02:08;22.40;99.90
4922;DHT22;16625;53.624;10.106;2022-09-12T11:04:47;22.40;99.90
4922;DHT22;16625;53.624;10.106;2022-09-12T11:07:34;22.30;99.90
4922;DHT22;16625;53.624;10.106;2022-09-12T11:10:14;22.40;99.90
4922;DHT22;16625;53.624;10.106;2022-09-12T11:12:49;22.40;99.90
4922;DHT22;16625;53.624;10.106;2022-09-12T11:15:33;22.30;99.90
4922;DHT22;16625;53.624;10.106;2022-09-12T11:18:08;22.50;99.90
4922;DHT22;16625;53.624;10.106;2022-09-12T11:24:04;22.60;99.90
4922;DHT22;16625;53.624;10.106;2022-09-12T11:26:41;22.60;99.90
4922;DHT22;16625;53.624;10.106;2022-09-12T11:29:17;22.60;99.90
4922;DHT22;16625;53.624;10.106;2022-09-12T11:32:09;22.80;99.90
4922;DHT22;16625;53.624;10.106;2022-09-12T11:34:47;22.60;99.90
4922;DHT22;16625;53.624;10.106;2022-09-12T11:37:28;22.80;99.90
4922;DHT22;16625;53.624;10.106;2022-09-12T11:40:06;22.70;99.90
4922;DHT22;16625;53.624;10.106;2022-09-12T11:42:39;22.80;99.90
4922;DHT22;16625;53.624;10.106;2022-09-12T11:45:12;22.90;99.90
4922;DHT22;16625;53.624;10.106;2022-09-12T11:47:43;22.90;99.90
4922;DHT22;16625;53.624;10.106;2022-09-12T11:50:18;23.20;99.90
4922;DHT22;16625;53.624;10.106;2022-09-12T11:52:49;22.90;99.90
4922;DHT22;16625;53.624;10.106;2022-09-12T11:55:23;23.00;99.90
4922;DHT22;16625;53.624;10.106;2022-09-12T11:57:53;22.90;99.90
4922;DHT22;16625;53.624;10.106;2022-09-12T12:00:21;22.60;76.70
4922;DHT22;16625;53.624;10.106;2022-09-12T12:02:56;22.70;99.90
4922;DHT22;16625;53.624;10.106;2022-09-12T12:05:27;22.80;99.90
4922;DHT22;16625;53.624;10.106;2022-09-12T12:07:56;22.80;99.90
4922;DHT22;16625;53.624;10.106;2022-09-12T12:10:31;22.50;99.90
4922;DHT22;16625;53.624;10.106;2022-09-12T12:13:00;22.70;99.90
4922;DHT22;16625;53.624;10.106;2022-09-12T12:15:28;22.80;99.90
4922;DHT22;16625;53.624;10.106;2022-09-12T12:18:05;22.90;99.90
4922;DHT22;16625;53.624;10.106;2022-09-12T12:20:33;23.10;99.90
4922;DHT22;16625;53.624;10.106;2022-09-12T12:23:00;23.20;99.20
4922;DHT22;16625;53.624;10.106;2022-09-12T12:25:40;23.00;99.90
4922;DHT22;16625;53.624;10.106;2022-09-12T12:31:17;23.00;99.90
4922;DHT22;16625;53.624;10.106;2022-09-12T12:34:19;22.90;94.20
4922;DHT22;16625;53.624;10.106;2022-09-12T12:36:47;22.90;94.90
4922;DHT22;16625;53.624;10.106;2022-09-12T12:48:56;23.20;97.90
4922;DHT22;16625;53.624;10.106;2022-09-12T12:51:56;23.40;99.90
4922;DHT22;16625;53.624;10.106;2022-09-12T12:54:27;23.30;62.30
4922;DHT22;16625;53.624;10.106;2022-09-12T12:57:14;23.30;71.60
4922;DHT22;16625;53.624;10.106;2022-09-12T12:59:46;23.30;92.80
4922;DHT22;16625;53.624;10.106;2022-09-12T13:02:19;23.30;82.80
4922;DHT22;16625;53.624;10.106;2022-09-12T13:04:48;23.30;70.30
4922;DHT22;16625;53.624;10.106;2022-09-12T13:07:26;23.30;72.90
4922;DHT22;16625;53.624;10.106;2022-09-12T13:09:56;23.30;55.00
4922;DHT22;16625;53.624;10.106;2022-09-12T13:12:26;23.20;44.60
4922;DHT22;16625;53.624;10.106;2022-09-12T13:14:54;23.20;90.10
4922;DHT22;16625;53.624;10.106;2022-09-12T13:17:29;23.30;49.00
4922;DHT22;16625;53.624;10.106;2022-09-12T13:20:15;23.30;50.70
4922;DHT22;16625;53.624;10.106;2022-09-12T13:22:45;23.30;90.80
4922;DHT22;16625;53.624;10.106;2022-09-12T13:25:21;23.40;43.90
4922;DHT22;16625;53.624;10.106;2022-09-12T13:28:04;23.30;59.10
4922;DHT22;16625;53.624;10.106;2022-09-12T13:30:33;23.30;43.70
4922;DHT22;16625;53.624;10.106;2022-09-12T13:33:08;23.50;37.30
4922;DHT22;16625;53.624;10.106;2022-09-12T13:38:33;23.20;26.30
4922;DHT22;16625;53.624;10.106;2022-09-12T13:41:18;23.20;38.10
4922;DHT22;16625;53.624;10.106;2022-09-12T13:43:47;23.20;27.30
4922;DHT22;16625;53.624;10.106;2022-09-12T13:46:16;23.20;34.70
4922;DHT22;16625;53.624;10.106;2022-09-12T13:48:44;23.10;42.80
4922;DHT22;16625;53.624;10.106;2022-09-12T13:51:21;23.10;19.90
4922;DHT22;16625;53.624;10.106;2022-09-12T13:53:51;23.10;23.40
4922;DHT22;16625;53.624;10.106;2022-09-12T13:56:21;23.20;1.00
4922;DHT22;16625;53.624;10.106;2022-09-12T13:58:52;23.20;13.10
4922;DHT22;16625;53.624;10.106;2022-09-12T14:01:20;23.00;19.90
4922;DHT22;16625;53.624;10.106;2022-09-12T14:03:49;23.10;11.60
4922;DHT22;16625;53.624;10.106;2022-09-12T14:06:45;22.60;5.70
4922;DHT22;16625;53.624;10.106;2022-09-12T14:09:18;23.00;1.00
4922;DHT22;16625;53.624;10.106;2022-09-12T14:11:47;23.00;2.50
4922;DHT22;16625;53.624;10.106;2022-09-12T14:14:20;22.80;1.00
4922;DHT22;16625;53.624;10.106;2022-09-12T14:16:56;23.00;1.00
4922;DHT22;16625;53.624;10.106;2022-09-12T14:19:23;23.10;1.00
4922;DHT22;16625;53.624;10.106;2022-09-12T14:21:53;23.00;1.00
4922;DHT22;16625;53.624;10.106;2022-09-12T14:24:20;22.90;1.00
4922;DHT22;16625;53.624;10.106;2022-09-12T14:26:50;23.00;1.00
4922;DHT22;16625;53.624;10.106;2022-09-12T14:29:18;23.10;1.00
4922;DHT22;16625;53.624;10.106;2022-09-12T14:31:46;23.20;1.00
4922;DHT22;16625;53.624;10.106;2022-09-12T14:34:14;23.10;1.00
4922;DHT22;16625;53.624;10.106;2022-09-12T14:36:44;23.20;1.00
4922;DHT22;16625;53.624;10.106;2022-09-12T14:39:21;23.30;1.00
4922;DHT22;16625;53.624;10.106;2022-09-12T14:41:50;23.20;1.00
4922;DHT22;16625;53.624;10.106;2022-09-12T14:44:21;23.20;1.00
4922;DHT22;16625;53.624;10.106;2022-09-12T14:46:49;23.10;1.00
4922;DHT22;16625;53.624;10.106;2022-09-12T14:49:18;23.20;1.00
4922;DHT22;16625;53.624;10.106;2022-09-12T14:51:53;22.80;1.00
4922;DHT22;16625;53.624;10.106;2022-09-12T14:54:53;22.70;1.00
4922;DHT22;16625;53.624;10.106;2022-09-12T14:57:33;22.80;1.00
4922;DHT22;16625;53.624;10.106;2022-09-12T15:00:20;22.70;1.00
4922;DHT22;16625;53.624;10.106;2022-09-12T15:02:49;22.60;1.00
4922;DHT22;16625;53.624;10.106;2022-09-12T15:05:19;22.50;1.00
4922;DHT22;16625;53.624;10.106;2022-09-12T15:07:53;22.40;1.00
4922;DHT22;16625;53.624;10.106;2022-09-12T15:10:25;22.40;1.00
4922;DHT22;16625;53.624;10.106;2022-09-12T15:13:22;22.30;1.00
4922;DHT22;16625;53.624;10.106;2022-09-12T15:15:53;22.30;1.00
4922;DHT22;16625;53.624;10.106;2022-09-12T15:18:23;22.30;1.00
4922;DHT22;16625;53.624;10.106;2022-09-12T15:20:52;22.30;1.00
4922;DHT22;16625;53.624;10.106;2022-09-12T15:23:28;22.20;1.00
4922;DHT22;16625;53.624;10.106;2022-09-12T15:25:56;22.10;1.00
4922;DHT22;16625;53.624;10.106;2022-09-12T15:28:24;22.20;1.00
4922;DHT22;16625;53.624;10.106;2022-09-12T15:30:52;22.30;1.00
4922;DHT22;16625;53.624;10.106;2022-09-12T15:33:20;22.40;1.00
4922;DHT22;16625;53.624;10.106;2022-09-12T15:35:48;22.50;1.00
4922;DHT22;16625;53.624;10.106;2022-09-12T15:38:16;22.80;1.00
4922;DHT22;16625;53.624;10.106;2022-09-12T15:40:43;22.70;1.00
4922;DHT22;16625;53.624;10.106;2022-09-12T15:43:12;22.80;1.00
4922;DHT22;16625;53.624;10.106;2022-09-12T15:45:47;22.90;1.00
4922;DHT22;16625;53.624;10.106;2022-09-12T15:48:15;23.00;1.00
4922;DHT22;16625;53.624;10.106;2022-09-12T15:50:42;23.30;1.00
4922;DHT22;16625;53.624;10.106;2022-09-12T15:53:14;23.30;1.00
4922;DHT22;16625;53.624;10.106;2022-09-12T15:55:41;23.20;1.00
4922;DHT22;16625;53.624;10.106;2022-09-12T15:58:08;23.20;1.00
4922;DHT22;16625;53.624;10.106;2022-09-12T16:00:37;23.00;1.00
4922;DHT22;16625;53.624;10.106;2022-09-12T16:03:04;22.90;1.00
4922;DHT22;16625;53.624;10.106;2022-09-12T16:05:31;23.00;1.00
4922;DHT22;16625;53.624;10.106;2022-09-12T16:07:58;23.00;1.00
4922;DHT22;16625;53.624;10.106;2022-09-12T16:10:27;22.90;1.00
4922;DHT22;16625;53.624;10.106;2022-09-12T16:12:56;22.80;1.00
4922;DHT22;16625;53.624;10.106;2022-09-12T16:15:24;23.00;1.00
4922;DHT22;16625;53.624;10.106;2022-09-12T16:17:52;22.70;1.00
4922;DHT22;16625;53.624;10.106;2022-09-12T16:20:20;22.70;1.00
4922;DHT22;16625;53.624;10.106;2022-09-12T16:22:47;22.50;1.00
4922;DHT22;16625;53.624;10.106;2022-09-12T16:25:14;22.40;1.00
4922;DHT22;16625;53.624;10.106;2022-09-12T16:27:42;22.30;1.00
4922;DHT22;16625;53.624;10.106;2022-09-12T16:30:09;22.30;1.00
4922;DHT22;16625;53.624;10.106;2022-09-12T16:32:37;22.20;1.00